sensor_id;sensor_type;location;lat;lon;timestamp;P1;durP1;ratioP1;P2;durP2;ratioP2
19016;SDS011;9641;51.494;6.670;2024-03-29T00:00:37;2.30;;;1.43;;
19016;SDS011;9641;51.494;6.670;2024-03-29T00:03:03;4.83;;;1.70;;
19016;SDS011;9641;51.494;6.670;2024-03-29T00:05:30;2.83;;;1.20;;
19016;SDS011;9641;51.494;6.670;2024-03-29T00:07:59;2.23;;;1.37;;
19016;SDS011;9641;51.494;6.670;2024-03-29T00:10:25;2.97;;;1.40;;
19016;SDS011;9641;51.494;6.670;2024-03-29T00:12:55;5.87;;;1.93;;
19016;SDS011;9641;51.494;6.670;2024-03-29T00:15:22;3.63;;;1.27;;
19016;SDS011;9641;51.494;6.670;2024-03-29T00:17:48;5.60;;;1.30;;
19016;SDS011;9641;51.494;6.670;2024-03-29T00:20:15;2.10;;;1.30;;
19016;SDS011;9641;51.494;6.670;2024-03-29T00:22:41;4.87;;;1.20;;
19016;SDS011;9641;51.494;6.670;2024-03-29T00:25:07;3.67;;;1.40;;
19016;SDS011;9641;51.494;6.670;2024-03-29T00:27:34;2.90;;;1.50;;
19016;SDS011;9641;51.494;6.670;2024-03-29T00:30:02;3.53;;;1.40;;
19016;SDS011;9641;51.494;6.670;2024-03-29T00:32:29;4.87;;;1.60;;
19016;SDS011;9641;51.494;6.670;2024-03-29T00:34:55;1.20;;;1.10;;
19016;SDS011;9641;51.494;6.670;2024-03-29T00:37:21;4.53;;;1.50;;
19016;SDS011;9641;51.494;6.670;2024-03-29T00:39:47;3.47;;;1.20;;
19016;SDS011;9641;51.494;6.670;2024-03-29T00:42:14;5.60;;;1.53;;
19016;SDS011;9641;51.494;6.670;2024-03-29T00:44:40;5.17;;;1.70;;
19016;SDS011;9641;51.494;6.670;2024-03-29T00:47:08;8.43;;;2.07;;
19016;SDS011;9641;51.494;6.670;2024-03-29T00:49:35;9.23;;;2.87;;
19016;SDS011;9641;51.494;6.670;2024-03-29T00:52:04;8.63;;;2.83;;
19016;SDS011;9641;51.494;6.670;2024-03-29T00:54:31;6.70;;;3.00;;
19016;SDS011;9641;51.494;6.670;2024-03-29T00:56:57;11.30;;;2.67;;
19016;SDS011;9641;51.494;6.670;2024-03-29T00:59:23;8.90;;;3.07;;
19016;SDS011;9641;51.494;6.670;2024-03-29T01:01:50;6.67;;;2.53;;
19016;SDS011;9641;51.494;6.670;2024-03-29T01:04:17;6.23;;;2.57;;
19016;SDS011;9641;51.494;6.670;2024-03-29T01:06:43;5.60;;;2.60;;
19016;SDS011;9641;51.494;6.670;2024-03-29T01:09:09;5.90;;;2.60;;
19016;SDS011;9641;51.494;6.670;2024-03-29T01:11:35;5.80;;;2.27;;
19016;SDS011;9641;51.494;6.670;2024-03-29T01:14:01;6.60;;;2.60;;
19016;SDS011;9641;51.494;6.670;2024-03-29T01:16:27;8.23;;;2.57;;
19016;SDS011;9641;51.494;6.670;2024-03-29T01:18:53;7.73;;;3.17;;
19016;SDS011;9641;51.494;6.670;2024-03-29T01:21:21;7.27;;;3.40;;
19016;SDS011;9641;51.494;6.670;2024-03-29T01:23:47;13.00;;;3.83;;
19016;SDS011;9641;51.494;6.670;2024-03-29T01:26:13;8.47;;;2.97;;
19016;SDS011;9641;51.494;6.670;2024-03-29T01:28:39;11.13;;;3.70;;
19016;SDS011;9641;51.494;6.670;2024-03-29T01:31:05;12.43;;;3.50;;
19016;SDS011;9641;51.494;6.670;2024-03-29T01:33:31;11.60;;;3.87;;
19016;SDS011;9641;51.494;6.670;2024-03-29T01:35:57;10.70;;;3.50;;
19016;SDS011;9641;51.494;6.670;2024-03-29T01:38:24;12.07;;;3.20;;
19016;SDS011;9641;51.494;6.670;2024-03-29T01:40:50;8.80;;;3.70;;
19016;SDS011;9641;51.494;6.670;2024-03-29T01:43:17;9.03;;;3.70;;
19016;SDS011;9641;51.494;6.670;2024-03-29T01:45:44;8.60;;;4.07;;
19016;SDS011;9641;51.494;6.670;2024-03-29T01:48:14;11.50;;;4.27;;
19016;SDS011;9641;51.494;6.670;2024-03-29T01:50:42;10.23;;;2.73;;
19016;SDS011;9641;51.494;6.670;2024-03-29T01:53:09;3.67;;;2.20;;
19016;SDS011;9641;51.494;6.670;2024-03-29T01:55:39;5.47;;;1.93;;
19016;SDS011;9641;51.494;6.670;2024-03-29T01:58:06;7.00;;;2.20;;
19016;SDS011;9641;51.494;6.670;2024-03-29T02:00:35;3.87;;;1.80;;
19016;SDS011;9641;51.494;6.670;2024-03-29T02:03:05;4.47;;;1.50;;
19016;SDS011;9641;51.494;6.670;2024-03-29T02:05:35;2.03;;;1.33;;
19016;SDS011;9641;51.494;6.670;2024-03-29T02:08:03;4.17;;;1.70;;
19016;SDS011;9641;51.494;6.670;2024-03-29T02:10:32;3.93;;;1.40;;
19016;SDS011;9641;51.494;6.670;2024-03-29T02:13:01;1.40;;;1.30;;
19016;SDS011;9641;51.494;6.670;2024-03-29T02:15:28;4.27;;;1.70;;
19016;SDS011;9641;51.494;6.670;2024-03-29T02:17:55;5.00;;;1.77;;
19016;SDS011;9641;51.494;6.670;2024-03-29T02:20:23;3.57;;;1.43;;
19016;SDS011;9641;51.494;6.670;2024-03-29T02:22:53;1.87;;;1.50;;
19016;SDS011;9641;51.494;6.670;2024-03-29T02:25:22;2.77;;;1.47;;
19016;SDS011;9641;51.494;6.670;2024-03-29T02:27:49;5.93;;;2.47;;
19016;SDS011;9641;51.494;6.670;2024-03-29T02:30:17;5.13;;;1.20;;
19016;SDS011;9641;51.494;6.670;2024-03-29T02:32:45;2.93;;;1.30;;
19016;SDS011;9641;51.494;6.670;2024-03-29T02:35:13;3.40;;;1.50;;
19016;SDS011;9641;51.494;6.670;2024-03-29T02:37:40;5.23;;;1.03;;
19016;SDS011;9641;51.494;6.670;2024-03-29T02:40:07;3.13;;;1.53;;
19016;SDS011;9641;51.494;6.670;2024-03-29T02:42:36;3.13;;;1.63;;
19016;SDS011;9641;51.494;6.670;2024-03-29T02:45:03;6.27;;;1.50;;
19016;SDS011;9641;51.494;6.670;2024-03-29T02:47:30;4.20;;;1.60;;
19016;SDS011;9641;51.494;6.670;2024-03-29T02:49:57;4.60;;;1.43;;
19016;SDS011;9641;51.494;6.670;2024-03-29T02:52:22;2.90;;;1.53;;
19016;SDS011;9641;51.494;6.670;2024-03-29T02:54:49;5.73;;;1.60;;
19016;SDS011;9641;51.494;6.670;2024-03-29T02:57:16;3.67;;;1.93;;
19016;SDS011;9641;51.494;6.670;2024-03-29T02:59:44;6.20;;;1.83;;
19016;SDS011;9641;51.494;6.670;2024-03-29T03:02:10;2.53;;;1.47;;
19016;SDS011;9641;51.494;6.670;2024-03-29T03:04:37;3.20;;;1.27;;
19016;SDS011;9641;51.494;6.670;2024-03-29T03:07:03;3.73;;;1.40;;
19016;SDS011;9641;51.494;6.670;2024-03-29T03:09:45;3.23;;;1.37;;
19016;SDS011;9641;51.494;6.670;2024-03-29T03:12:43;4.50;;;1.40;;
19016;SDS011;9641;51.494;6.670;2024-03-29T03:15:12;2.60;;;1.67;;
19016;SDS011;9641;51.494;6.670;2024-03-29T03:17:38;2.00;;;1.33;;
19016;SDS011;9641;51.494;6.670;2024-03-29T03:20:05;4.50;;;1.40;;
19016;SDS011;9641;51.494;6.670;2024-03-29T03:22:34;3.73;;;1.57;;
19016;SDS011;9641;51.494;6.670;2024-03-29T03:25:01;1.43;;;1.10;;
19016;SDS011;9641;51.494;6.670;2024-03-29T03:27:27;5.10;;;1.53;;
19016;SDS011;9641;51.494;6.670;2024-03-29T03:29:54;2.23;;;1.33;;
19016;SDS011;9641;51.494;6.670;2024-03-29T03:32:22;4.53;;;1.03;;
19016;SDS011;9641;51.494;6.670;2024-03-29T03:34:49;1.57;;;1.03;;
19016;SDS011;9641;51.494;6.670;2024-03-29T03:37:15;2.80;;;1.10;;
19016;SDS011;9641;51.494;6.670;2024-03-29T03:39:42;1.77;;;1.20;;
19016;SDS011;9641;51.494;6.670;2024-03-29T03:42:08;2.10;;;1.00;;
19016;SDS011;9641;51.494;6.670;2024-03-29T03:44:35;1.27;;;1.00;;
19016;SDS011;9641;51.494;6.670;2024-03-29T03:47:01;5.47;;;1.57;;
19016;SDS011;9641;51.494;6.670;2024-03-29T03:49:29;2.13;;;1.17;;
19016;SDS011;9641;51.494;6.670;2024-03-29T03:51:55;3.30;;;1.40;;
19016;SDS011;9641;51.494;6.670;2024-03-29T03:54:23;2.53;;;1.50;;
19016;SDS011;9641;51.494;6.670;2024-03-29T03:56:48;3.77;;;1.77;;
19016;SDS011;9641;51.494;6.670;2024-03-29T03:59:15;8.23;;;2.00;;
19016;SDS011;9641;51.494;6.670;2024-03-29T04:01:41;2.73;;;1.70;;
19016;SDS011;9641;51.494;6.670;2024-03-29T04:04:08;2.50;;;1.37;;
19016;SDS011;9641;51.494;6.670;2024-03-29T04:06:36;2.40;;;1.80;;
19016;SDS011;9641;51.494;6.670;2024-03-29T04:09:03;3.50;;;1.50;;
19016;SDS011;9641;51.494;6.670;2024-03-29T04:11:29;3.07;;;1.40;;
19016;SDS011;9641;51.494;6.670;2024-03-29T04:13:57;2.17;;;1.10;;
19016;SDS011;9641;51.494;6.670;2024-03-29T04:16:24;1.87;;;1.10;;
19016;SDS011;9641;51.494;6.670;2024-03-29T04:18:51;1.33;;;1.20;;
19016;SDS011;9641;51.494;6.670;2024-03-29T04:21:17;3.13;;;1.20;;
19016;SDS011;9641;51.494;6.670;2024-03-29T04:23:45;4.07;;;1.30;;
19016;SDS011;9641;51.494;6.670;2024-03-29T04:26:11;2.00;;;1.43;;
19016;SDS011;9641;51.494;6.670;2024-03-29T04:28:38;3.87;;;1.30;;
19016;SDS011;9641;51.494;6.670;2024-03-29T04:31:04;3.20;;;1.50;;
19016;SDS011;9641;51.494;6.670;2024-03-29T04:33:31;3.60;;;1.40;;
19016;SDS011;9641;51.494;6.670;2024-03-29T04:35:57;3.23;;;1.40;;
19016;SDS011;9641;51.494;6.670;2024-03-29T04:38:25;2.27;;;1.10;;
19016;SDS011;9641;51.494;6.670;2024-03-29T04:40:55;3.73;;;1.43;;
19016;SDS011;9641;51.494;6.670;2024-03-29T04:43:22;4.43;;;1.30;;
19016;SDS011;9641;51.494;6.670;2024-03-29T04:45:50;6.00;;;1.57;;
19016;SDS011;9641;51.494;6.670;2024-03-29T04:48:27;3.87;;;1.50;;
19016;SDS011;9641;51.494;6.670;2024-03-29T04:50:54;1.60;;;1.27;;
19016;SDS011;9641;51.494;6.670;2024-03-29T04:53:21;1.23;;;1.23;;
19016;SDS011;9641;51.494;6.670;2024-03-29T04:55:54;2.57;;;1.70;;
19016;SDS011;9641;51.494;6.670;2024-03-29T04:58:21;3.23;;;1.90;;
19016;SDS011;9641;51.494;6.670;2024-03-29T05:00:48;4.40;;;1.93;;
19016;SDS011;9641;51.494;6.670;2024-03-29T05:03:16;6.23;;;2.40;;
19016;SDS011;9641;51.494;6.670;2024-03-29T05:05:43;4.73;;;2.27;;
19016;SDS011;9641;51.494;6.670;2024-03-29T05:08:10;5.00;;;2.40;;
19016;SDS011;9641;51.494;6.670;2024-03-29T05:10:37;5.10;;;2.40;;
19016;SDS011;9641;51.494;6.670;2024-03-29T05:13:06;3.50;;;2.00;;
19016;SDS011;9641;51.494;6.670;2024-03-29T05:15:33;2.93;;;1.63;;
19016;SDS011;9641;51.494;6.670;2024-03-29T05:18:00;5.00;;;1.97;;
19016;SDS011;9641;51.494;6.670;2024-03-29T05:20:27;4.57;;;2.03;;
19016;SDS011;9641;51.494;6.670;2024-03-29T05:22:54;4.10;;;1.53;;
19016;SDS011;9641;51.494;6.670;2024-03-29T05:25:21;4.10;;;1.80;;
19016;SDS011;9641;51.494;6.670;2024-03-29T05:27:48;3.60;;;1.83;;
19016;SDS011;9641;51.494;6.670;2024-03-29T05:30:16;4.43;;;2.03;;
19016;SDS011;9641;51.494;6.670;2024-03-29T05:32:44;2.90;;;1.57;;
19016;SDS011;9641;51.494;6.670;2024-03-29T05:35:10;4.27;;;1.60;;
19016;SDS011;9641;51.494;6.670;2024-03-29T05:37:39;3.47;;;1.83;;
19016;SDS011;9641;51.494;6.670;2024-03-29T05:40:06;4.73;;;1.70;;
19016;SDS011;9641;51.494;6.670;2024-03-29T05:42:34;3.90;;;2.77;;
19016;SDS011;9641;51.494;6.670;2024-03-29T05:45:03;4.10;;;1.80;;
19016;SDS011;9641;51.494;6.670;2024-03-29T05:47:33;5.67;;;1.90;;
19016;SDS011;9641;51.494;6.670;2024-03-29T05:50:00;4.63;;;2.23;;
19016;SDS011;9641;51.494;6.670;2024-03-29T05:52:27;6.50;;;2.60;;
19016;SDS011;9641;51.494;6.670;2024-03-29T05:54:54;4.20;;;2.20;;
19016;SDS011;9641;51.494;6.670;2024-03-29T05:57:21;5.80;;;2.60;;
19016;SDS011;9641;51.494;6.670;2024-03-29T05:59:54;4.10;;;2.33;;
19016;SDS011;9641;51.494;6.670;2024-03-29T06:02:21;8.40;;;2.53;;
19016;SDS011;9641;51.494;6.670;2024-03-29T06:04:50;4.70;;;2.23;;
19016;SDS011;9641;51.494;6.670;2024-03-29T06:07:17;5.63;;;1.93;;
19016;SDS011;9641;51.494;6.670;2024-03-29T06:09:43;6.83;;;2.13;;
19016;SDS011;9641;51.494;6.670;2024-03-29T06:12:13;5.70;;;2.13;;
19016;SDS011;9641;51.494;6.670;2024-03-29T06:14:40;2.47;;;2.00;;
19016;SDS011;9641;51.494;6.670;2024-03-29T06:17:24;4.43;;;2.30;;
19016;SDS011;9641;51.494;6.670;2024-03-29T06:19:53;5.23;;;2.40;;
19016;SDS011;9641;51.494;6.670;2024-03-29T06:22:21;5.97;;;3.00;;
19016;SDS011;9641;51.494;6.670;2024-03-29T06:24:49;9.70;;;3.33;;
19016;SDS011;9641;51.494;6.670;2024-03-29T06:27:16;14.43;;;5.60;;
19016;SDS011;9641;51.494;6.670;2024-03-29T06:29:45;14.97;;;6.37;;
19016;SDS011;9641;51.494;6.670;2024-03-29T06:32:13;15.70;;;7.30;;
19016;SDS011;9641;51.494;6.670;2024-03-29T06:34:41;16.57;;;6.10;;
19016;SDS011;9641;51.494;6.670;2024-03-29T06:37:09;12.30;;;5.50;;
19016;SDS011;9641;51.494;6.670;2024-03-29T06:39:36;11.90;;;5.40;;
19016;SDS011;9641;51.494;6.670;2024-03-29T06:42:03;7.83;;;3.17;;
19016;SDS011;9641;51.494;6.670;2024-03-29T06:44:32;6.57;;;3.00;;
19016;SDS011;9641;51.494;6.670;2024-03-29T06:46:59;4.40;;;2.87;;
19016;SDS011;9641;51.494;6.670;2024-03-29T06:49:26;7.10;;;2.27;;
19016;SDS011;9641;51.494;6.670;2024-03-29T06:51:52;3.50;;;2.67;;
19016;SDS011;9641;51.494;6.670;2024-03-29T06:54:26;10.23;;;2.30;;
19016;SDS011;9641;51.494;6.670;2024-03-29T06:56:53;5.53;;;2.20;;
19016;SDS011;9641;51.494;6.670;2024-03-29T06:59:19;6.67;;;1.97;;
19016;SDS011;9641;51.494;6.670;2024-03-29T07:01:46;3.20;;;1.67;;
19016;SDS011;9641;51.494;6.670;2024-03-29T07:04:17;5.03;;;2.00;;
19016;SDS011;9641;51.494;6.670;2024-03-29T07:06:45;6.63;;;1.80;;
19016;SDS011;9641;51.494;6.670;2024-03-29T07:09:13;3.73;;;1.70;;
19016;SDS011;9641;51.494;6.670;2024-03-29T07:11:41;4.10;;;1.83;;
19016;SDS011;9641;51.494;6.670;2024-03-29T07:14:08;3.53;;;2.67;;
19016;SDS011;9641;51.494;6.670;2024-03-29T07:16:35;7.00;;;1.90;;
19016;SDS011;9641;51.494;6.670;2024-03-29T07:19:02;4.57;;;1.90;;
19016;SDS011;9641;51.494;6.670;2024-03-29T07:21:29;6.17;;;2.30;;
19016;SDS011;9641;51.494;6.670;2024-03-29T07:23:57;6.30;;;2.23;;
19016;SDS011;9641;51.494;6.670;2024-03-29T07:26:23;4.77;;;2.07;;
19016;SDS011;9641;51.494;6.670;2024-03-29T07:28:52;5.73;;;1.87;;
19016;SDS011;9641;51.494;6.670;2024-03-29T07:31:19;3.40;;;1.80;;
19016;SDS011;9641;51.494;6.670;2024-03-29T07:33:46;6.80;;;1.97;;
19016;SDS011;9641;51.494;6.670;2024-03-29T07:36:13;3.23;;;1.90;;
19016;SDS011;9641;51.494;6.670;2024-03-29T07:38:41;2.80;;;1.70;;
19016;SDS011;9641;51.494;6.670;2024-03-29T07:41:09;3.10;;;1.63;;
19016;SDS011;9641;51.494;6.670;2024-03-29T07:43:37;4.60;;;1.80;;
19016;SDS011;9641;51.494;6.670;2024-03-29T07:46:06;2.80;;;1.60;;
19016;SDS011;9641;51.494;6.670;2024-03-29T07:48:34;3.07;;;1.57;;
19016;SDS011;9641;51.494;6.670;2024-03-29T07:51:01;4.30;;;1.93;;
19016;SDS011;9641;51.494;6.670;2024-03-29T07:53:28;6.83;;;1.80;;
19016;SDS011;9641;51.494;6.670;2024-03-29T07:55:55;2.13;;;1.57;;
19016;SDS011;9641;51.494;6.670;2024-03-29T07:58:22;3.43;;;1.90;;
19016;SDS011;9641;51.494;6.670;2024-03-29T08:00:49;2.20;;;2.00;;
19016;SDS011;9641;51.494;6.670;2024-03-29T08:03:18;3.13;;;1.80;;
19016;SDS011;9641;51.494;6.670;2024-03-29T08:05:54;4.63;;;2.00;;
19016;SDS011;9641;51.494;6.670;2024-03-29T08:08:24;3.43;;;2.03;;
19016;SDS011;9641;51.494;6.670;2024-03-29T08:10:52;3.50;;;1.80;;
19016;SDS011;9641;51.494;6.670;2024-03-29T08:13:19;4.03;;;1.80;;
19016;SDS011;9641;51.494;6.670;2024-03-29T08:15:55;5.63;;;2.50;;
19016;SDS011;9641;51.494;6.670;2024-03-29T08:18:25;7.63;;;1.93;;
19016;SDS011;9641;51.494;6.670;2024-03-29T08:20:52;4.57;;;2.40;;
19016;SDS011;9641;51.494;6.670;2024-03-29T08:23:20;3.80;;;2.13;;
19016;SDS011;9641;51.494;6.670;2024-03-29T08:25:47;2.40;;;2.03;;
19016;SDS011;9641;51.494;6.670;2024-03-29T08:28:16;3.60;;;2.00;;
19016;SDS011;9641;51.494;6.670;2024-03-29T08:30:43;5.17;;;2.30;;
19016;SDS011;9641;51.494;6.670;2024-03-29T08:33:11;3.00;;;1.90;;
19016;SDS011;9641;51.494;6.670;2024-03-29T08:35:39;3.23;;;2.20;;
19016;SDS011;9641;51.494;6.670;2024-03-29T08:38:09;5.83;;;2.10;;
19016;SDS011;9641;51.494;6.670;2024-03-29T08:40:38;2.93;;;1.90;;
19016;SDS011;9641;51.494;6.670;2024-03-29T08:43:08;4.37;;;2.30;;
19016;SDS011;9641;51.494;6.670;2024-03-29T08:45:35;3.97;;;2.07;;
19016;SDS011;9641;51.494;6.670;2024-03-29T08:48:06;5.60;;;1.40;;
19016;SDS011;9641;51.494;6.670;2024-03-29T08:50:33;3.13;;;1.90;;
19016;SDS011;9641;51.494;6.670;2024-03-29T08:53:02;2.00;;;1.60;;
19016;SDS011;9641;51.494;6.670;2024-03-29T08:55:29;4.13;;;1.80;;
19016;SDS011;9641;51.494;6.670;2024-03-29T08:57:56;3.13;;;1.60;;
19016;SDS011;9641;51.494;6.670;2024-03-29T09:00:23;2.50;;;1.70;;
19016;SDS011;9641;51.494;6.670;2024-03-29T09:02:51;2.20;;;1.70;;
19016;SDS011;9641;51.494;6.670;2024-03-29T09:05:18;3.40;;;1.60;;
19016;SDS011;9641;51.494;6.670;2024-03-29T09:07:47;1.70;;;1.60;;
19016;SDS011;9641;51.494;6.670;2024-03-29T09:10:15;3.40;;;1.90;;
19016;SDS011;9641;51.494;6.670;2024-03-29T09:12:43;5.37;;;1.80;;
19016;SDS011;9641;51.494;6.670;2024-03-29T09:15:10;3.67;;;1.50;;
19016;SDS011;9641;51.494;6.670;2024-03-29T09:17:40;2.37;;;1.50;;
19016;SDS011;9641;51.494;6.670;2024-03-29T09:20:08;2.07;;;1.40;;
19016;SDS011;9641;51.494;6.670;2024-03-29T09:22:36;2.77;;;1.80;;
19016;SDS011;9641;51.494;6.670;2024-03-29T09:25:04;2.00;;;1.57;;
19016;SDS011;9641;51.494;6.670;2024-03-29T09:27:32;2.27;;;1.43;;
19016;SDS011;9641;51.494;6.670;2024-03-29T09:30:01;3.87;;;1.77;;
19016;SDS011;9641;51.494;6.670;2024-03-29T09:32:29;3.13;;;1.40;;
19016;SDS011;9641;51.494;6.670;2024-03-29T09:34:56;2.67;;;1.60;;
19016;SDS011;9641;51.494;6.670;2024-03-29T09:37:23;2.43;;;1.53;;
19016;SDS011;9641;51.494;6.670;2024-03-29T09:39:51;1.80;;;1.70;;
19016;SDS011;9641;51.494;6.670;2024-03-29T09:42:18;2.60;;;1.87;;
19016;SDS011;9641;51.494;6.670;2024-03-29T09:44:52;2.17;;;1.77;;
19016;SDS011;9641;51.494;6.670;2024-03-29T09:47:22;2.00;;;1.60;;
19016;SDS011;9641;51.494;6.670;2024-03-29T09:49:52;3.83;;;2.37;;
19016;SDS011;9641;51.494;6.670;2024-03-29T09:52:21;5.23;;;3.17;;
19016;SDS011;9641;51.494;6.670;2024-03-29T09:54:48;4.50;;;3.33;;
19016;SDS011;9641;51.494;6.670;2024-03-29T09:57:15;4.63;;;3.10;;
19016;SDS011;9641;51.494;6.670;2024-03-29T09:59:43;4.57;;;2.87;;
19016;SDS011;9641;51.494;6.670;2024-03-29T10:02:14;4.77;;;3.10;;
19016;SDS011;9641;51.494;6.670;2024-03-29T10:04:42;4.77;;;2.90;;
19016;SDS011;9641;51.494;6.670;2024-03-29T10:07:11;7.40;;;2.97;;
19016;SDS011;9641;51.494;6.670;2024-03-29T10:09:40;5.33;;;3.20;;
19016;SDS011;9641;51.494;6.670;2024-03-29T10:12:09;6.03;;;3.17;;
19016;SDS011;9641;51.494;6.670;2024-03-29T10:14:45;5.43;;;2.77;;
19016;SDS011;9641;51.494;6.670;2024-03-29T10:17:18;5.00;;;3.10;;
19016;SDS011;9641;51.494;6.670;2024-03-29T10:19:46;3.00;;;2.53;;
19016;SDS011;9641;51.494;6.670;2024-03-29T10:22:13;4.37;;;2.63;;
19016;SDS011;9641;51.494;6.670;2024-03-29T10:24:40;2.83;;;2.27;;
19016;SDS011;9641;51.494;6.670;2024-03-29T10:27:07;4.50;;;2.20;;
19016;SDS011;9641;51.494;6.670;2024-03-29T10:29:33;3.70;;;2.43;;
19016;SDS011;9641;51.494;6.670;2024-03-29T10:32:00;3.17;;;1.93;;
19016;SDS011;9641;51.494;6.670;2024-03-29T10:34:30;2.60;;;1.90;;
19016;SDS011;9641;51.494;6.670;2024-03-29T10:37:01;2.23;;;2.03;;
19016;SDS011;9641;51.494;6.670;2024-03-29T10:39:29;2.33;;;1.63;;
19016;SDS011;9641;51.494;6.670;2024-03-29T10:41:57;2.93;;;2.00;;
19016;SDS011;9641;51.494;6.670;2024-03-29T10:44:25;3.77;;;1.83;;
19016;SDS011;9641;51.494;6.670;2024-03-29T10:46:54;1.97;;;1.60;;
19016;SDS011;9641;51.494;6.670;2024-03-29T10:49:23;2.40;;;1.80;;
19016;SDS011;9641;51.494;6.670;2024-03-29T10:51:51;4.53;;;1.43;;
19016;SDS011;9641;51.494;6.670;2024-03-29T10:54:21;4.83;;;1.67;;
19016;SDS011;9641;51.494;6.670;2024-03-29T10:56:51;2.93;;;1.60;;
19016;SDS011;9641;51.494;6.670;2024-03-29T10:59:28;3.83;;;1.70;;
19016;SDS011;9641;51.494;6.670;2024-03-29T11:02:05;1.97;;;1.50;;
19016;SDS011;9641;51.494;6.670;2024-03-29T11:04:38;2.07;;;1.30;;
19016;SDS011;9641;51.494;6.670;2024-03-29T11:07:09;2.10;;;1.40;;
19016;SDS011;9641;51.494;6.670;2024-03-29T11:09:42;2.07;;;1.40;;
19016;SDS011;9641;51.494;6.670;2024-03-29T11:12:12;3.50;;;1.40;;
19016;SDS011;9641;51.494;6.670;2024-03-29T11:14:46;1.80;;;1.53;;
19016;SDS011;9641;51.494;6.670;2024-03-29T11:17:22;2.67;;;1.30;;
19016;SDS011;9641;51.494;6.670;2024-03-29T11:19:58;3.07;;;1.50;;
19016;SDS011;9641;51.494;6.670;2024-03-29T11:22:32;7.33;;;2.17;;
19016;SDS011;9641;51.494;6.670;2024-03-29T11:25:00;2.07;;;1.50;;
19016;SDS011;9641;51.494;6.670;2024-03-29T11:27:30;3.50;;;1.47;;
19016;SDS011;9641;51.494;6.670;2024-03-29T11:30:01;1.70;;;1.40;;
19016;SDS011;9641;51.494;6.670;2024-03-29T11:32:36;1.20;;;1.10;;
19016;SDS011;9641;51.494;6.670;2024-03-29T11:35:14;2.37;;;1.20;;
19016;SDS011;9641;51.494;6.670;2024-03-29T11:37:56;4.80;;;1.30;;
19016;SDS011;9641;51.494;6.670;2024-03-29T11:40:40;3.43;;;1.70;;
19016;SDS011;9641;51.494;6.670;2024-03-29T11:43:13;3.10;;;1.30;;
19016;SDS011;9641;51.494;6.670;2024-03-29T11:45:43;2.17;;;1.30;;
19016;SDS011;9641;51.494;6.670;2024-03-29T11:48:22;1.17;;;1.07;;
19016;SDS011;9641;51.494;6.670;2024-03-29T11:51:01;1.20;;;1.10;;
19016;SDS011;9641;51.494;6.670;2024-03-29T11:53:34;2.83;;;1.00;;
19016;SDS011;9641;51.494;6.670;2024-03-29T11:56:16;0.90;;;0.90;;
19016;SDS011;9641;51.494;6.670;2024-03-29T11:58:51;1.17;;;1.00;;
19016;SDS011;9641;51.494;6.670;2024-03-29T12:01:25;3.67;;;1.30;;
19016;SDS011;9641;51.494;6.670;2024-03-29T12:03:54;2.63;;;1.10;;
19016;SDS011;9641;51.494;6.670;2024-03-29T12:06:35;1.43;;;0.83;;
19016;SDS011;9641;51.494;6.670;2024-03-29T12:09:20;3.43;;;0.70;;
19016;SDS011;9641;51.494;6.670;2024-03-29T12:11:47;1.07;;;0.70;;
19016;SDS011;9641;51.494;6.670;2024-03-29T12:14:16;0.80;;;0.80;;
19016;SDS011;9641;51.494;6.670;2024-03-29T12:16:47;2.43;;;0.90;;
19016;SDS011;9641;51.494;6.670;2024-03-29T12:19:22;2.87;;;1.20;;
19016;SDS011;9641;51.494;6.670;2024-03-29T12:21:50;1.37;;;0.90;;
19016;SDS011;9641;51.494;6.670;2024-03-29T12:24:28;2.43;;;0.90;;
19016;SDS011;9641;51.494;6.670;2024-03-29T12:26:57;1.20;;;1.00;;
19016;SDS011;9641;51.494;6.670;2024-03-29T12:29:24;1.57;;;1.00;;
19016;SDS011;9641;51.494;6.670;2024-03-29T12:31:56;1.57;;;0.70;;
19016;SDS011;9641;51.494;6.670;2024-03-29T12:34:25;3.20;;;0.83;;
19016;SDS011;9641;51.494;6.670;2024-03-29T12:36:53;1.23;;;1.13;;
19016;SDS011;9641;51.494;6.670;2024-03-29T12:39:23;0.87;;;0.80;;
19016;SDS011;9641;51.494;6.670;2024-03-29T12:41:52;0.77;;;0.77;;
19016;SDS011;9641;51.494;6.670;2024-03-29T12:44:25;2.23;;;0.90;;
19016;SDS011;9641;51.494;6.670;2024-03-29T12:46:56;0.90;;;0.80;;
19016;SDS011;9641;51.494;6.670;2024-03-29T12:49:26;0.57;;;0.57;;
19016;SDS011;9641;51.494;6.670;2024-03-29T12:51:55;2.67;;;1.10;;
19016;SDS011;9641;51.494;6.670;2024-03-29T12:54:24;0.60;;;0.60;;
19016;SDS011;9641;51.494;6.670;2024-03-29T12:56:52;1.87;;;1.00;;
19016;SDS011;9641;51.494;6.670;2024-03-29T12:59:20;0.60;;;0.60;;
19016;SDS011;9641;51.494;6.670;2024-03-29T13:01:48;3.03;;;1.10;;
19016;SDS011;9641;51.494;6.670;2024-03-29T13:04:15;1.70;;;0.80;;
19016;SDS011;9641;51.494;6.670;2024-03-29T13:06:42;2.27;;;0.50;;
19016;SDS011;9641;51.494;6.670;2024-03-29T13:09:10;0.87;;;0.70;;
19016;SDS011;9641;51.494;6.670;2024-03-29T13:11:40;0.50;;;0.50;;
19016;SDS011;9641;51.494;6.670;2024-03-29T13:14:07;0.70;;;0.50;;
19016;SDS011;9641;51.494;6.670;2024-03-29T13:16:34;1.30;;;0.70;;
19016;SDS011;9641;51.494;6.670;2024-03-29T13:19:02;0.50;;;0.50;;
19016;SDS011;9641;51.494;6.670;2024-03-29T13:21:33;0.70;;;0.70;;
19016;SDS011;9641;51.494;6.670;2024-03-29T13:24:02;0.50;;;0.50;;
19016;SDS011;9641;51.494;6.670;2024-03-29T13:26:31;1.47;;;0.60;;
19016;SDS011;9641;51.494;6.670;2024-03-29T13:29:00;1.08;;;0.55;;
19016;SDS011;9641;51.494;6.670;2024-03-29T13:31:28;0.80;;;0.60;;
19016;SDS011;9641;51.494;6.670;2024-03-29T13:33:57;0.80;;;0.60;;
19016;SDS011;9641;51.494;6.670;2024-03-29T13:36:29;1.15;;;0.50;;
19016;SDS011;9641;51.494;6.670;2024-03-29T13:38:57;0.67;;;0.43;;
19016;SDS011;9641;51.494;6.670;2024-03-29T13:41:24;1.40;;;0.50;;
19016;SDS011;9641;51.494;6.670;2024-03-29T13:43:51;0.77;;;0.70;;
19016;SDS011;9641;51.494;6.670;2024-03-29T13:46:20;0.93;;;0.60;;
19016;SDS011;9641;51.494;6.670;2024-03-29T13:48:47;3.17;;;0.80;;
19016;SDS011;9641;51.494;6.670;2024-03-29T13:51:15;1.40;;;0.87;;
19016;SDS011;9641;51.494;6.670;2024-03-29T13:53:42;1.00;;;0.70;;
19016;SDS011;9641;51.494;6.670;2024-03-29T13:56:09;1.55;;;0.70;;
19016;SDS011;9641;51.494;6.670;2024-03-29T13:58:36;3.05;;;0.52;;
19016;SDS011;9641;51.494;6.670;2024-03-29T14:01:03;0.55;;;0.50;;
19016;SDS011;9641;51.494;6.670;2024-03-29T14:03:32;2.10;;;0.95;;
19016;SDS011;9641;51.494;6.670;2024-03-29T14:05:59;1.40;;;0.70;;
19016;SDS011;9641;51.494;6.670;2024-03-29T14:08:27;2.97;;;0.57;;
19016;SDS011;9641;51.494;6.670;2024-03-29T14:10:55;4.68;;;0.70;;
19016;SDS011;9641;51.494;6.670;2024-03-29T14:13:22;2.45;;;0.43;;
19016;SDS011;9641;51.494;6.670;2024-03-29T14:15:50;0.70;;;0.52;;
19016;SDS011;9641;51.494;6.670;2024-03-29T14:18:17;0.95;;;0.63;;
19016;SDS011;9641;51.494;6.670;2024-03-29T14:20:47;3.88;;;0.60;;
19016;SDS011;9641;51.494;6.670;2024-03-29T14:23:14;0.93;;;0.50;;
19016;SDS011;9641;51.494;6.670;2024-03-29T14:25:45;2.35;;;0.70;;
19016;SDS011;9641;51.494;6.670;2024-03-29T14:28:12;0.63;;;0.60;;
19016;SDS011;9641;51.494;6.670;2024-03-29T14:30:40;0.80;;;0.60;;
19016;SDS011;9641;51.494;6.670;2024-03-29T14:33:07;2.55;;;1.05;;
19016;SDS011;9641;51.494;6.670;2024-03-29T14:35:34;1.38;;;0.60;;
19016;SDS011;9641;51.494;6.670;2024-03-29T14:38:03;0.50;;;0.50;;
19016;SDS011;9641;51.494;6.670;2024-03-29T14:40:30;0.80;;;0.60;;
19016;SDS011;9641;51.494;6.670;2024-03-29T14:42:57;1.23;;;0.75;;
19016;SDS011;9641;51.494;6.670;2024-03-29T14:45:25;0.70;;;0.60;;
19016;SDS011;9641;51.494;6.670;2024-03-29T14:47:52;0.68;;;0.63;;
19016;SDS011;9641;51.494;6.670;2024-03-29T14:50:20;1.42;;;0.50;;
19016;SDS011;9641;51.494;6.670;2024-03-29T14:52:47;1.38;;;0.55;;
19016;SDS011;9641;51.494;6.670;2024-03-29T14:55:16;1.48;;;0.50;;
19016;SDS011;9641;51.494;6.670;2024-03-29T14:57:45;0.73;;;0.60;;
19016;SDS011;9641;51.494;6.670;2024-03-29T15:00:15;0.70;;;0.50;;
19016;SDS011;9641;51.494;6.670;2024-03-29T15:02:44;1.67;;;0.80;;
19016;SDS011;9641;51.494;6.670;2024-03-29T15:07:54;1.97;;;1.13;;
19016;SDS011;9641;51.494;6.670;2024-03-29T15:10:23;2.77;;;1.50;;